Forside
METAR-TAF:

METAR-TAF

Lufthavne :

Ames, Iowa, USA

Breddekreds: 41-59-26N, længdekreds: 093-37-08W, højde: 288 m

Aktuelle vejr

Denne rapport blev lavet for 54 minutter siden, kl. 06:53 UTC
Vind 14 kt fra øst med vindstød på up til 24 kt
Temperatur 10°C
Fugtighed 82%
Tryk 1015 hPa
Sigt: 16.1 km
Overskyet i en højde af 7000 ft

METAR: KAMW 210653Z AUTO 10014G24KT 10SM OVC070 10/07 A2998 RMK AO2 SLP152 T01000067

Tid: 02:47 (07:47 UTC)


TAF: fraværende

Vejrobservationer og prognoser fra mere end 4000 lufthavne (METAR og TAF).

De gule og røde prikker repræsenterer de meteorologiske stationer.

Flyt musen over at se navnet på stationen.

Så klik over at se vejr observationer og prognoser.

At skifte det kort: Klik på de grønne knapper med et sort kors for at zoome ind; på den grønne knap med en bindestreg for at zoome ud; eller på de grønne pile for tilstødende kort.


METAR-TAF: